New Orleans, Louisiana
Current Conditions -  °F | °C
As of 10:35 PM on Thursday 18 Dec 2014 (Local Time) from KVSH Reporting Station
Overcast Overcast  
Wind Chill: 57°   Ceiling: 7000
Heat Index: 57°   Visibility: 10mi
Dew Point: 48°   Wind: 5mph
Humidity: 72%   Direction: 60°ENE
Pressure: 30.15"   Gusts: NA
Location:  29.95°N, 90.08°W
Report Text: KVSH 190435Z AUTO 06004KT 10SM SCT025 OVC070 14/09 A3015 RMK AO1
Loading
Personal Weather Stations






























Interactive Weather Map New forecast layout! Learn more

10-Day Weather Forecast

Advertisements
Track Severe Weather on mobile